createdAt,value
2019-06-10T00:02:07.872Z,4.30
2019-06-10T00:04:35.521Z,3.90
2019-06-10T00:07:04.165Z,4.33
2019-06-10T00:09:32.742Z,4.47
2019-06-10T00:12:02.577Z,4.63
2019-06-10T00:14:31.494Z,4.63
2019-06-10T00:17:01.619Z,4.47
2019-06-10T00:19:31.564Z,4.70
2019-06-10T00:21:59.911Z,5.10
2019-06-10T00:24:28.293Z,5.13
2019-06-10T00:26:56.078Z,4.90
2019-06-10T00:29:26.134Z,4.63
2019-06-10T00:31:58.503Z,4.77
2019-06-10T00:34:26.378Z,5.17
2019-06-10T00:36:54.031Z,5.40
2019-06-10T00:39:22.291Z,5.33
2019-06-10T00:41:52.183Z,4.83
2019-06-10T00:44:20.590Z,4.07
2019-06-10T00:46:48.402Z,4.43
2019-06-10T00:49:17.049Z,4.20
2019-06-10T00:51:44.810Z,4.50
2019-06-10T00:54:15.393Z,4.70
2019-06-10T00:56:43.024Z,4.30
2019-06-10T00:59:13.384Z,4.70
2019-06-10T01:01:41.601Z,4.53
2019-06-10T01:04:14.386Z,4.40
2019-06-10T01:06:38.969Z,4.20
2019-06-10T01:09:08.779Z,4.50
2019-06-10T01:11:37.383Z,4.60
2019-06-10T01:14:05.217Z,5.07
2019-06-10T01:16:32.973Z,5.43
2019-06-10T01:19:01.477Z,5.90
2019-06-10T01:21:31.179Z,6.03
2019-06-10T01:24:01.061Z,5.90
2019-06-10T01:26:30.829Z,6.40
2019-06-10T01:28:58.169Z,5.40
2019-06-10T01:31:25.698Z,5.57
2019-06-10T01:33:53.351Z,5.87
2019-06-10T01:36:21.212Z,5.50
2019-06-10T01:38:51.096Z,6.13
2019-06-10T01:41:18.576Z,5.33
2019-06-10T01:43:47.228Z,5.20
2019-06-10T01:46:16.260Z,5.30
2019-06-10T01:48:48.108Z,4.73
2019-06-10T01:51:17.681Z,5.17
2019-06-10T01:53:46.537Z,5.00
2019-06-10T01:56:15.485Z,5.17
2019-06-10T01:58:43.749Z,4.53
2019-06-10T02:01:20.091Z,5.27
2019-06-10T02:03:48.722Z,5.23
2019-06-10T02:06:19.901Z,5.47
2019-06-10T02:08:45.884Z,5.83
2019-06-10T02:11:15.541Z,5.30
2019-06-10T02:13:43.206Z,5.17
2019-06-10T02:16:14.112Z,5.40
2019-06-10T02:18:42.241Z,5.23
2019-06-10T02:21:14.297Z,5.30
2019-06-10T02:23:41.208Z,5.50
2019-06-10T02:26:11.299Z,5.27
2019-06-10T02:28:40.579Z,4.87
2019-06-10T02:31:08.409Z,4.50
2019-06-10T02:33:36.800Z,4.43
2019-06-10T02:36:05.019Z,4.50
2019-06-10T02:38:38.667Z,4.30
2019-06-10T02:41:04.450Z,4.80
2019-06-10T02:43:37.556Z,4.17
2019-06-10T02:46:04.754Z,4.30
2019-06-10T02:48:34.938Z,4.00
2019-06-10T02:51:04.773Z,4.10
2019-06-10T02:53:35.994Z,4.00
2019-06-10T02:56:04.348Z,5.00
2019-06-10T02:58:38.355Z,4.13
2019-06-10T03:01:04.278Z,4.77
2019-06-10T03:03:39.243Z,4.57
2019-06-10T03:06:06.941Z,4.43
2019-06-10T03:08:35.901Z,5.40
2019-06-10T03:11:03.732Z,5.10
2019-06-10T03:13:33.009Z,4.80
2019-06-10T03:16:22.179Z,4.53
2019-06-10T03:18:49.436Z,4.73
2019-06-10T03:21:17.978Z,5.10
2019-06-10T03:23:45.722Z,4.77
2019-06-10T03:26:13.341Z,4.43
2019-06-10T03:28:42.721Z,4.40
2019-06-10T03:31:10.530Z,5.20
2019-06-10T03:33:42.146Z,4.93
2019-06-10T03:36:07.685Z,4.57
2019-06-10T03:38:37.079Z,4.43
2019-06-10T03:41:04.872Z,4.70
2019-06-10T03:43:33.134Z,5.00
2019-06-10T03:46:03.005Z,4.50
2019-06-10T03:48:32.565Z,4.93
2019-06-10T03:51:03.275Z,4.87
2019-06-10T03:53:33.376Z,4.80
2019-06-10T03:56:02.266Z,5.07
2019-06-10T03:58:32.479Z,4.37
2019-06-10T04:00:59.698Z,5.00
2019-06-10T04:03:28.125Z,5.00
2019-06-10T04:05:56.940Z,4.70
2019-06-10T04:08:25.399Z,4.93
2019-06-10T04:10:54.197Z,4.73
2019-06-10T04:13:23.978Z,5.20
2019-06-10T04:15:53.328Z,5.13
2019-06-10T04:18:22.527Z,5.33
2019-06-10T04:20:52.759Z,4.87
2019-06-10T04:23:22.713Z,4.80
2019-06-10T04:25:49.767Z,5.37
2019-06-10T04:28:17.795Z,6.00
2019-06-10T04:30:45.513Z,5.67
2019-06-10T04:33:13.149Z,5.13
2019-06-10T04:35:42.759Z,5.17
2019-06-10T04:38:13.087Z,5.27
2019-06-10T04:40:42.960Z,5.43
2019-06-10T04:43:12.412Z,5.83
2019-06-10T04:45:42.842Z,5.57
2019-06-10T04:48:12.289Z,5.57
2019-06-10T04:50:45.494Z,5.80
2019-06-10T04:53:09.368Z,6.17
2019-06-10T04:55:37.023Z,5.50
2019-06-10T04:58:04.650Z,5.80
2019-06-10T05:00:33.096Z,5.43
2019-06-10T05:03:02.862Z,5.93
2019-06-10T05:05:32.716Z,5.60
2019-06-10T05:08:02.519Z,5.23
2019-06-10T05:10:29.974Z,4.27
2019-06-10T05:12:57.789Z,4.80
2019-06-10T05:15:28.404Z,4.37
2019-06-10T05:17:55.112Z,4.43
2019-06-10T05:20:39.963Z,4.60
2019-06-10T05:22:59.402Z,4.70
2019-06-10T05:25:28.396Z,4.80
2019-06-10T05:27:56.316Z,5.10
2019-06-10T05:30:26.283Z,4.77
2019-06-10T05:33:03.376Z,4.63
2019-06-10T05:35:35.321Z,4.83
2019-06-10T05:38:03.217Z,5.00
2019-06-10T05:40:33.746Z,4.73
2019-06-10T05:43:02.452Z,4.63
2019-06-10T05:45:30.557Z,5.03
2019-06-10T05:47:58.346Z,4.70
2019-06-10T05:50:26.791Z,5.10
2019-06-10T05:52:54.599Z,5.40
2019-06-10T05:55:22.843Z,5.20
2019-06-10T05:57:53.263Z,5.60
2019-06-10T06:00:22.957Z,5.00
2019-06-10T06:02:52.253Z,5.60
2019-06-10T06:05:22.107Z,6.20
2019-06-10T06:08:02.348Z,6.00
2019-06-10T06:10:19.230Z,6.80
2019-06-10T06:12:46.892Z,6.17
2019-06-10T06:15:14.721Z,6.90
2019-06-10T06:17:43.184Z,6.60
2019-06-10T06:20:13.345Z,6.70
2019-06-10T06:22:42.680Z,7.33
2019-06-10T06:25:15.193Z,6.83
2019-06-10T06:27:42.163Z,6.60
2019-06-10T06:30:13.775Z,6.90
2019-06-10T06:32:39.840Z,6.43
2019-06-10T06:35:07.473Z,6.70
2019-06-10T06:37:37.683Z,7.13
2019-06-10T06:40:05.341Z,7.40
2019-06-10T06:42:35.044Z,6.53
2019-06-10T06:45:03.131Z,7.30
2019-06-10T06:47:34.054Z,6.87
2019-06-10T06:50:02.561Z,7.17
2019-06-10T06:52:56.705Z,7.60
2019-06-10T06:54:59.633Z,7.33
2019-06-10T06:57:27.282Z,6.90
2019-06-10T06:59:54.922Z,6.77
2019-06-10T07:02:23.254Z,6.40
2019-06-10T07:04:52.611Z,6.47
2019-06-10T07:07:22.249Z,6.07
2019-06-10T07:09:52.654Z,5.70
2019-06-10T07:12:23.414Z,6.50
2019-06-10T07:14:52.591Z,6.03
2019-06-10T07:17:22.610Z,6.00
2019-06-10T07:19:49.900Z,6.00
2019-06-10T07:22:19.429Z,6.67
2019-06-10T07:24:47.705Z,6.73
2019-06-10T07:27:15.543Z,6.97
2019-06-10T07:29:46.937Z,6.93
2019-06-10T07:32:12.690Z,6.43
2019-06-10T07:34:41.676Z,6.87
2019-06-10T07:37:10.022Z,6.70
2019-06-10T07:39:39.614Z,6.93
2019-06-10T07:42:07.411Z,6.23
2019-06-10T07:44:36.325Z,6.33
2019-06-10T07:47:09.144Z,6.70
2019-06-10T07:49:37.223Z,6.03
2019-06-10T07:52:15.882Z,5.90
2019-06-10T07:54:35.930Z,6.27
2019-06-10T07:57:04.110Z,5.80
2019-06-10T07:59:32.588Z,5.90
2019-06-10T08:02:03.089Z,6.67
2019-06-10T08:04:33.169Z,6.17
2019-06-10T08:07:03.181Z,6.43
2019-06-10T08:09:30.346Z,6.23
2019-06-10T08:11:58.100Z,6.57
2019-06-10T08:14:25.804Z,6.90
2019-06-10T08:16:53.532Z,6.30
2019-06-10T08:19:33.332Z,6.47
2019-06-10T08:21:53.690Z,6.00
2019-06-10T08:24:22.135Z,6.03
2019-06-10T08:26:50.091Z,5.80
2019-06-10T08:29:17.759Z,5.57
2019-06-10T08:31:48.463Z,5.13
2019-06-10T08:34:15.082Z,5.40
2019-06-10T08:36:47.120Z,5.33
2019-06-10T08:39:15.759Z,5.17
2019-06-10T08:41:44.073Z,4.37
2019-06-10T08:44:12.687Z,5.50
2019-06-10T08:46:41.025Z,5.83
2019-06-10T08:49:12.494Z,5.43
2019-06-10T08:51:39.821Z,5.00
2019-06-10T08:54:07.607Z,5.07
2019-06-10T08:56:35.299Z,5.07
2019-06-10T08:59:03.994Z,4.33
2019-06-10T09:01:33.483Z,4.20
2019-06-10T09:04:03.088Z,3.97
2019-06-10T09:06:32.950Z,4.33
2019-06-10T09:09:02.688Z,4.10
2019-06-10T09:11:32.857Z,3.77
2019-06-10T09:14:02.591Z,3.57
2019-06-10T09:16:32.425Z,3.20
2019-06-10T09:19:02.107Z,3.30
2019-06-10T09:21:29.720Z,3.57
2019-06-10T09:24:00.055Z,3.57
2019-06-10T09:26:27.272Z,3.10
2019-06-10T09:28:56.615Z,3.27
2019-06-10T09:31:24.626Z,3.07
2019-06-10T09:33:56.724Z,3.20
2019-06-10T09:36:23.522Z,2.90
2019-06-10T09:38:55.069Z,3.00
2019-06-10T09:41:30.911Z,2.63
2019-06-10T09:43:56.504Z,3.33
2019-06-10T09:46:23.266Z,3.07
2019-06-10T09:48:55.724Z,3.10
2019-06-10T09:51:23.122Z,3.20
2019-06-10T09:54:02.438Z,3.27
2019-06-10T09:56:22.837Z,2.70
2019-06-10T09:58:52.915Z,2.90
2019-06-10T10:01:19.629Z,2.53
2019-06-10T10:03:51.909Z,2.77
2019-06-10T10:06:16.881Z,2.87
2019-06-10T10:08:47.390Z,3.10
2019-06-10T10:11:14.209Z,2.37
2019-06-10T10:13:44.974Z,3.00
2019-06-10T10:16:13.126Z,2.80
2019-06-10T10:18:46.958Z,2.93
2019-06-10T10:21:13.061Z,2.97
2019-06-10T10:23:52.478Z,2.97
2019-06-10T10:26:13.139Z,4.17
2019-06-10T10:28:42.802Z,3.27
2019-06-10T10:31:13.143Z,3.43
2019-06-10T10:33:40.393Z,3.40
2019-06-10T10:36:08.112Z,3.50
2019-06-10T10:38:35.889Z,3.43
2019-06-10T10:41:04.985Z,3.13
2019-06-10T10:43:37.192Z,3.20
2019-06-10T10:46:05.505Z,3.70
2019-06-10T10:48:33.601Z,3.37
2019-06-10T10:51:03.371Z,3.07
2019-06-10T10:53:32.841Z,3.23
2019-06-10T10:56:02.314Z,2.83
2019-06-10T10:58:32.263Z,3.00
2019-06-10T11:01:03.062Z,3.07
2019-06-10T11:03:29.945Z,3.10
2019-06-10T11:06:00.943Z,2.97
2019-06-10T11:08:27.308Z,2.60
2019-06-10T11:11:00.827Z,2.80
2019-06-10T11:13:27.929Z,2.87
2019-06-10T11:15:57.121Z,2.80
2019-06-10T11:18:25.390Z,2.83
2019-06-10T11:20:54.065Z,2.60
2019-06-10T11:23:22.857Z,3.10
2019-06-10T11:25:55.251Z,2.90
2019-06-10T11:28:22.840Z,3.43
2019-06-10T11:30:54.414Z,3.47
2019-06-10T11:33:22.754Z,3.00
2019-06-10T11:35:51.475Z,3.50
2019-06-10T11:38:19.551Z,2.93
2019-06-10T11:40:47.247Z,3.63
2019-06-10T11:43:14.937Z,3.30
2019-06-10T11:45:48.268Z,3.40
2019-06-10T11:48:13.008Z,3.10
2019-06-10T11:50:42.816Z,3.13
2019-06-10T11:53:12.795Z,3.80
2019-06-10T11:55:42.250Z,3.50
2019-06-10T11:58:09.727Z,3.33
2019-06-10T12:00:37.412Z,3.60
2019-06-10T12:03:05.273Z,3.60
2019-06-10T12:05:33.100Z,3.43
2019-06-10T12:08:02.739Z,3.63
2019-06-10T12:10:33.146Z,3.90
2019-06-10T12:13:07.105Z,3.53
2019-06-10T12:16:09.685Z,3.47
2019-06-10T12:18:08.603Z,3.10
2019-06-10T12:20:37.429Z,3.63
2019-06-10T12:23:07.199Z,3.70
2019-06-10T12:25:39.654Z,3.23
2019-06-10T12:28:08.425Z,3.20
2019-06-10T12:30:38.066Z,3.30
2019-06-10T12:33:07.729Z,3.03
2019-06-10T12:35:37.329Z,3.50
2019-06-10T12:38:06.975Z,3.10
2019-06-10T12:40:56.871Z,2.90
2019-06-10T12:43:43.321Z,3.30
2019-06-10T12:46:29.337Z,2.80
2019-06-10T12:49:18.482Z,3.00
2019-06-10T12:51:47.145Z,3.63
2019-06-10T12:54:16.744Z,3.13
2019-06-10T12:56:46.426Z,3.47
2019-06-10T12:59:14.305Z,3.03
2019-06-10T13:01:44.766Z,3.00
2019-06-10T13:04:13.935Z,3.23
2019-06-10T13:06:44.840Z,3.33
2019-06-10T13:09:13.058Z,3.23
2019-06-10T13:11:43.180Z,3.83
2019-06-10T13:14:12.835Z,3.80
2019-06-10T13:16:41.120Z,3.17
2019-06-10T13:19:09.676Z,3.10
2019-06-10T13:21:37.325Z,3.70
2019-06-10T13:24:06.032Z,3.63
2019-06-10T13:26:36.125Z,3.50
2019-06-10T13:29:06.979Z,3.57
2019-06-10T13:31:33.957Z,3.77
2019-06-10T13:34:06.567Z,3.47
2019-06-10T13:36:33.063Z,3.83
2019-06-10T13:39:03.978Z,3.17
2019-06-10T13:41:33.378Z,3.77
2019-06-10T13:44:02.108Z,3.53
2019-06-10T13:46:30.017Z,3.87
2019-06-10T13:48:57.794Z,3.93
2019-06-10T13:51:25.699Z,3.40
2019-06-10T13:53:53.858Z,3.27
2019-06-10T13:56:39.751Z,3.43
2019-06-10T13:58:52.288Z,3.83
2019-06-10T14:01:22.009Z,4.03
2019-06-10T14:03:49.785Z,3.27
2019-06-10T14:06:36.869Z,4.40
2019-06-10T14:08:47.065Z,3.67
2019-06-10T14:11:14.761Z,3.03
2019-06-10T14:13:43.300Z,3.77
2019-06-10T14:16:14.018Z,3.37
2019-06-10T14:18:42.407Z,3.27
2019-06-10T14:21:17.311Z,4.20
2019-06-10T14:23:42.214Z,3.80
2019-06-10T14:26:10.043Z,3.90
2019-06-10T14:28:41.196Z,3.80
2019-06-10T14:31:30.222Z,4.00
2019-06-10T14:33:38.264Z,4.07
2019-06-10T14:36:07.560Z,3.90
2019-06-10T14:38:35.622Z,4.60
2019-06-10T14:41:04.916Z,4.07
2019-06-10T14:43:33.423Z,3.77
2019-06-10T14:46:01.201Z,4.13
2019-06-10T14:48:29.010Z,4.00
2019-06-10T14:50:56.681Z,3.80
2019-06-10T14:53:24.389Z,3.93
2019-06-10T14:55:53.380Z,3.70
2019-06-10T14:58:23.023Z,3.70
2019-06-10T15:00:54.223Z,3.43
2019-06-10T15:03:20.616Z,3.80
2019-06-10T15:05:48.346Z,3.57
2019-06-10T15:08:17.304Z,3.50
2019-06-10T15:10:45.145Z,3.63
2019-06-10T15:13:13.857Z,3.70
2019-06-10T15:15:42.444Z,3.40
2019-06-10T15:18:12.197Z,4.10
2019-06-10T15:20:42.628Z,3.53
2019-06-10T15:23:11.506Z,3.93
2019-06-10T15:25:50.266Z,3.70
2019-06-10T15:28:09.968Z,4.07
2019-06-10T15:30:38.417Z,3.63
2019-06-10T15:33:06.093Z,3.63
2019-06-10T15:35:33.790Z,3.53
2019-06-10T15:38:04.175Z,3.70
2019-06-10T15:40:32.490Z,3.90
2019-06-10T15:43:00.492Z,3.70
2019-06-10T15:45:29.225Z,3.93
2019-06-10T15:47:56.894Z,3.80
2019-06-10T15:50:27.528Z,4.40
2019-06-10T15:52:54.386Z,3.73
2019-06-10T15:55:48.385Z,3.40
2019-06-10T15:57:54.162Z,3.53
2019-06-10T16:00:28.105Z,3.73
2019-06-10T16:02:51.240Z,3.73
2019-06-10T16:05:19.389Z,3.20
2019-06-10T16:07:48.389Z,3.60
2019-06-10T16:10:19.626Z,3.30
2019-06-10T16:12:45.629Z,3.93
2019-06-10T16:15:16.138Z,3.60
2019-06-10T16:17:43.345Z,3.43
2019-06-10T16:20:13.035Z,3.43
2019-06-10T16:22:42.751Z,3.70
2019-06-10T16:25:12.536Z,3.97
2019-06-10T16:27:47.089Z,3.63
2019-06-10T16:30:09.674Z,3.60
2019-06-10T16:32:37.373Z,3.90
2019-06-10T16:35:05.369Z,4.27
2019-06-10T16:37:33.033Z,4.93
2019-06-10T16:40:03.168Z,19.23
2019-06-10T16:42:32.170Z,12.97
2019-06-10T16:45:02.536Z,6.00
2019-06-10T16:47:32.675Z,5.23
2019-06-10T16:50:03.039Z,4.30
2019-06-10T16:52:30.423Z,4.60
2019-06-10T16:54:58.248Z,4.50
2019-06-10T16:57:27.290Z,4.80
2019-06-10T16:59:55.272Z,4.70
2019-06-10T17:02:25.077Z,4.30
2019-06-10T17:04:52.733Z,5.20
2019-06-10T17:07:20.584Z,4.40
2019-06-10T17:09:48.388Z,4.27
2019-06-10T17:12:16.037Z,4.30
2019-06-10T17:14:43.721Z,4.83
2019-06-10T17:17:12.694Z,5.17
2019-06-10T17:19:40.522Z,4.60
2019-06-10T17:22:08.260Z,4.50
2019-06-10T17:24:35.993Z,4.87
2019-06-10T17:27:03.952Z,5.53
2019-06-10T17:29:33.429Z,4.63
2019-06-10T17:32:02.833Z,5.40
2019-06-10T17:34:31.403Z,5.20
2019-06-10T17:37:00.342Z,5.03
2019-06-10T17:39:28.613Z,5.20
2019-06-10T17:41:57.632Z,4.80
2019-06-10T17:44:27.803Z,4.80
2019-06-10T17:46:54.896Z,5.00
2019-06-10T17:49:25.362Z,4.90
2019-06-10T17:51:52.637Z,4.50
2019-06-10T17:54:22.515Z,4.10
2019-06-10T17:56:50.016Z,4.20
2019-06-10T17:59:17.774Z,4.07
2019-06-10T18:01:45.453Z,3.60
2019-06-10T18:04:13.171Z,3.80
2019-06-10T18:06:42.452Z,4.03
2019-06-10T18:09:12.293Z,4.37
2019-06-10T18:11:40.020Z,4.03
2019-06-10T18:14:07.681Z,4.13
2019-06-10T18:16:36.668Z,4.00
2019-06-10T18:19:04.631Z,4.70
2019-06-10T18:21:33.506Z,4.30
2019-06-10T18:24:08.097Z,4.83
2019-06-10T18:26:35.926Z,4.60
2019-06-10T18:29:08.146Z,4.23
2019-06-10T18:31:34.008Z,4.33
2019-06-10T18:34:02.467Z,4.27
2019-06-10T18:36:32.665Z,4.20
2019-06-10T18:39:00.089Z,4.07
2019-06-10T18:41:27.948Z,4.63
2019-06-10T18:43:55.763Z,4.43
2019-06-10T18:46:23.446Z,4.77
2019-06-10T18:48:53.491Z,5.07
2019-06-10T18:51:22.596Z,4.80
2019-06-10T18:53:50.464Z,4.90
2019-06-10T18:56:18.181Z,4.80
2019-06-10T18:58:46.867Z,5.47
2019-06-10T19:01:14.649Z,5.23
2019-06-10T19:03:43.064Z,5.53
2019-06-10T19:06:12.552Z,5.30
2019-06-10T19:08:43.380Z,5.37
2019-06-10T19:11:10.124Z,5.37
2019-06-10T19:13:39.174Z,5.50
2019-06-10T19:16:07.449Z,5.50
2019-06-10T19:18:36.073Z,5.60
2019-06-10T19:21:06.256Z,5.67
2019-06-10T19:23:35.039Z,5.30
2019-06-10T19:26:03.198Z,4.90
2019-06-10T19:28:33.406Z,5.80
2019-06-10T19:31:02.391Z,5.67
2019-06-10T19:33:34.078Z,5.10
2019-06-10T19:36:02.262Z,5.17
2019-06-10T19:38:32.423Z,5.07
2019-06-10T19:40:59.816Z,5.03
2019-06-10T19:43:27.602Z,5.03
2019-06-10T19:45:55.282Z,5.20
2019-06-10T19:48:23.242Z,5.50
2019-06-10T19:50:53.780Z,5.13
2019-06-10T19:53:22.199Z,5.10
2019-06-10T19:55:50.008Z,4.97
2019-06-10T19:58:17.759Z,5.53
2019-06-10T20:00:50.876Z,5.60
2019-06-10T20:03:14.990Z,4.97
2019-06-10T20:05:45.271Z,5.43
2019-06-10T20:08:47.325Z,5.03
2019-06-10T20:11:15.027Z,5.37
2019-06-10T20:13:43.647Z,5.60
2019-06-10T20:16:12.266Z,5.53
2019-06-10T20:18:40.504Z,5.40
2019-06-10T20:21:09.581Z,5.60
2019-06-10T20:23:37.410Z,6.00
2019-06-10T20:26:06.052Z,6.10
2019-06-10T20:28:33.913Z,5.43
2019-06-10T20:31:01.756Z,5.67
2019-06-10T20:33:36.172Z,5.73
2019-06-10T20:36:06.311Z,5.83
2019-06-10T20:38:32.524Z,5.90
2019-06-10T20:41:02.419Z,6.17
2019-06-10T20:43:29.981Z,5.97
2019-06-10T20:45:58.329Z,6.53
2019-06-10T20:48:27.389Z,5.93
2019-06-10T20:50:55.075Z,5.63
2019-06-10T20:53:22.761Z,5.80
2019-06-10T20:55:54.987Z,5.93
2019-06-10T20:58:22.159Z,6.57
2019-06-10T21:00:53.904Z,6.30
2019-06-10T21:03:19.109Z,6.50
2019-06-10T21:05:50.018Z,6.33
2019-06-10T21:08:17.882Z,6.73
2019-06-10T21:10:48.028Z,6.50
2019-06-10T21:13:15.069Z,6.30
2019-06-10T21:15:45.665Z,6.77
2019-06-10T21:18:13.162Z,6.97
2019-06-10T21:20:44.455Z,6.60
2019-06-10T21:23:15.394Z,7.33
2019-06-10T21:25:41.221Z,7.23
2019-06-10T21:28:09.785Z,7.67
2019-06-10T21:30:41.899Z,7.30
2019-06-10T21:33:07.025Z,7.03
2019-06-10T21:35:34.670Z,7.63
2019-06-10T21:38:03.059Z,7.27
2019-06-10T21:40:32.834Z,7.00
2019-06-10T21:43:02.569Z,8.00
2019-06-10T21:45:32.301Z,7.43
2019-06-10T21:47:59.365Z,7.13
2019-06-10T21:50:27.078Z,7.10
2019-06-10T21:52:54.846Z,7.43
2019-06-10T21:55:22.604Z,7.40
2019-06-10T21:57:51.573Z,7.00
2019-06-10T22:00:25.876Z,6.67
2019-06-10T22:02:58.428Z,6.80
2019-06-10T22:05:24.997Z,6.27
2019-06-10T22:07:56.012Z,6.07
2019-06-10T22:10:22.992Z,7.10
2019-06-10T22:12:52.732Z,5.93
2019-06-10T22:15:22.463Z,5.60
2019-06-10T22:17:50.493Z,5.63
2019-06-10T22:20:22.718Z,5.10
2019-06-10T22:22:53.212Z,6.37
2019-06-10T22:25:22.251Z,4.80
2019-06-10T22:27:50.055Z,5.30
2019-06-10T22:30:17.988Z,4.00
2019-06-10T22:32:45.717Z,4.00
2019-06-10T22:35:13.369Z,3.30
2019-06-10T22:37:41.021Z,3.23
2019-06-10T22:40:08.868Z,3.23
2019-06-10T22:42:36.495Z,3.10
2019-06-10T22:45:04.609Z,3.30
2019-06-10T22:47:32.437Z,3.03
2019-06-10T22:50:04.805Z,3.37
2019-06-10T22:52:32.021Z,2.83
2019-06-10T22:55:01.061Z,3.00
2019-06-10T22:57:28.884Z,3.37
2019-06-10T22:59:57.780Z,3.40
2019-06-10T23:02:26.135Z,3.20
2019-06-10T23:05:01.376Z,3.40
2019-06-10T23:07:27.792Z,2.80
2019-06-10T23:09:56.335Z,3.33
2019-06-10T23:12:24.952Z,3.03
2019-06-10T23:14:53.612Z,2.97
2019-06-10T23:17:22.133Z,3.10
2019-06-10T23:19:51.590Z,3.00
2019-06-10T23:22:19.314Z,2.90
2019-06-10T23:24:46.939Z,2.90
2019-06-10T23:27:14.550Z,2.67
2019-06-10T23:29:42.749Z,3.20
2019-06-10T23:32:12.814Z,3.30
2019-06-10T23:34:42.122Z,3.10
2019-06-10T23:37:09.598Z,3.27
2019-06-10T23:39:37.214Z,3.00
2019-06-10T23:42:04.848Z,3.07
2019-06-10T23:44:33.026Z,2.90
2019-06-10T23:47:03.651Z,3.10
2019-06-10T23:49:32.270Z,3.00
2019-06-10T23:52:00.933Z,2.90
2019-06-10T23:54:29.393Z,2.90
2019-06-10T23:56:57.017Z,2.50
2019-06-10T23:59:24.638Z,3.00
